Portada
METAR-TAF:

METAR-TAF

Aeropuertos :

Aeropuerto de Santander

Santander, España

latitud: 43-26N, longitud: 003-49W, altitud: 6 m

Observación

El informe se hizo hace 39 minutos, a las 00:30 UTC
Viento 2 kt del oeste
Temperatura 14°C
Humedad 63%
Presión 1020 hPa
Visibilidad 10 km o más
sin nubes por debajo de 1500 m y sin presencia de cumulonimbus.

METAR: LEXJ 020030Z AUTO 28002KT CAVOK 14/07 Q1020

Hora: 02:09 (01:09 UTC)

Pronóstico

El informe se hizo hace 5 horas y 9 minutos, a las 20:00 UTC
Pronóstico válido del 01 a las 21 UTC al 02 a las 21 UTC
Viento 8 kt del sur-suroeste
Visibilidad 10 km o más
sin nubes por debajo de 1500 m y sin presencia de cumulonimbus.
Probabilidad 30% :
Temporalmente
del 02 a las 03 UTC al 02 a las 18 UTC
Viento 15 kt del oeste-suroeste con ráfagas de 25 kt

TAF: LEXJ 012000Z 0121/0221 20008KT CAVOK TX22/0214Z TN10/0200Z PROB30 TEMPO 0203/0218 24015G25KT

Observaciones y pronósticos meteorológicos de más de 4000 aeropuertos (mensajes METAR y TAF).

Los puntos amarillos y rojos representan las estaciones disponibles.

Ponga el ratón en el punto deseado para ver el nombre de la estación.

Haga clic para ver las observaciones y los pronósticos meteorológicos.

Para cambiar el mapa : haga clic en los botones verdes con una cruz de color negro para hacer un zoom, en el botón verde con un guión para alejar o en las flechas verdes para mapas adyacentes.


METAR-TAF: